地図

経路データ

SID SEASON NUMBER BASIN SUBBASIN NAME ISO_TIME NATURE LAT LON WMO_WIND WMO_PRES WMO_AGENCY TRACK_TYPE DIST2LAND LANDFALL IFLAG USA_AGENCY USA_ATCF_ID USA_LAT USA_LON USA_RECORD USA_STATUS USA_WIND USA_PRES USA_SSHS USA_R34_NE USA_R34_SE USA_R34_SW USA_R34_NW USA_R50_NE USA_R50_SE USA_R50_SW USA_R50_NW USA_R64_NE USA_R64_SE USA_R64_SW USA_R64_NW USA_POCI USA_ROCI USA_RMW USA_EYE TOKYO_LAT TOKYO_LON TOKYO_GRADE TOKYO_WIND TOKYO_PRES TOKYO_R50_DIR TOKYO_R50_LONG TOKYO_R50_SHORT TOKYO_R30_DIR TOKYO_R30_LONG TOKYO_R30_SHORT TOKYO_LAND CMA_LAT CMA_LON CMA_CAT CMA_WIND CMA_PRES HKO_LAT HKO_LON HKO_CAT HKO_WIND HKO_PRES NEWDELHI_LAT NEWDELHI_LON NEWDELHI_GRADE NEWDELHI_WIND NEWDELHI_PRES NEWDELHI_CI NEWDELHI_DP NEWDELHI_POCI REUNION_LAT REUNION_LON REUNION_TYPE REUNION_WIND REUNION_PRES REUNION_TNUM REUNION_CI REUNION_RMW REUNION_R34_NE REUNION_R34_SE REUNION_R34_SW REUNION_R34_NW REUNION_R50_NE REUNION_R50_SE REUNION_R50_SW REUNION_R50_NW REUNION_R64_NE REUNION_R64_SE REUNION_R64_SW REUNION_R64_NW BOM_LAT BOM_LON BOM_TYPE BOM_WIND BOM_PRES BOM_TNUM BOM_CI BOM_RMW BOM_R34_NE BOM_R34_SE BOM_R34_SW BOM_R34_NW BOM_R50_NE BOM_R50_SE BOM_R50_SW BOM_R50_NW BOM_R64_NE BOM_R64_SE BOM_R64_SW BOM_R64_NW BOM_ROCI BOM_POCI BOM_EYE BOM_POS_METHOD BOM_PRES_METHOD NADI_LAT NADI_LON NADI_CAT NADI_WIND NADI_PRES WELLINGTON_LAT WELLINGTON_LON WELLINGTON_WIND WELLINGTON_PRES DS824_LAT DS824_LON DS824_STAGE DS824_WIND DS824_PRES TD9636_LAT TD9636_LON TD9636_STAGE TD9636_WIND TD9636_PRES TD9635_LAT TD9635_LON TD9635_WIND TD9635_PRES TD9635_ROCI NEUMANN_LAT NEUMANN_LON NEUMANN_CLASS NEUMANN_WIND NEUMANN_PRES MLC_LAT MLC_LON MLC_CLASS MLC_WIND MLC_PRES USA_GUST BOM_GUST BOM_GUST_PER REUNION_GUST REUNION_GUST_PER USA_SEAHGT USA_SEARAD_NE USA_SEARAD_SE USA_SEARAD_SW USA_SEARAD_NW STORM_SPEED STORM_DIR
1953165N10109 1953 25 WP MM NOT_NAMED 1953-06-14 00:00:00 TS 9.90000 109.100 main 142 140 __O___________ -1 9.90000 109.100 0 17 1003 8 65
1953165N10109 1953 25 WP MM NOT_NAMED 1953-06-14 03:00:00 TS 10.0801 109.485 main 151 151 __P___________ -1 10.0801 109.485 0 17 1003 8 66
1953165N10109 1953 25 WP MM NOT_NAMED 1953-06-14 06:00:00 TS 10.2000 109.800 main 160 160 __O___________ -1 10.2000 109.800 0 17 1003 5 73
1953165N10109 1953 25 WP MM NOT_NAMED 1953-06-14 09:00:00 TS 10.2349 110.008 main 173 164 __P___________ -1 10.2349 110.008 0 17 1003 3 57
1953165N10109 1953 25 WP MM NOT_NAMED 1953-06-14 12:00:00 TS 10.3800 110.080 main 164 164 __O_______O___ -1 10.3000 110.200 0 17 1003 10.7000 109.600 2 5 45
1953165N10109 1953 25 WP MM NOT_NAMED 1953-06-14 15:00:00 TS 10.5883 110.372 main 177 177 __P_______P___ -1 10.5125 110.492 0 17 1003 10.7398 110.130 2 8 57
1953165N10109 1953 25 WP MM NOT_NAMED 1953-06-14 18:00:00 TS 10.8014 110.735 main 192 192 __O_______P___ -1 10.8000 110.800 0 17 1003 10.8033 110.648 2 8 61
1953165N10109 1953 25 WP MM NOT_NAMED 1953-06-14 21:00:00 TS 10.9851 111.107 main 220 220 __P_______P___ -1 11.0550 111.073 0 17 1003 10.9151 111.142 2 8 57
1953165N10109 1953 25 WP MM NOT_NAMED 1953-06-15 00:00:00 TS 11.2500 111.450 main 249 246 __O_______O___ -1 11.4000 111.300 0 17 1003 11.1000 111.600 2 9 43
1953165N10109 1953 25 WP MM NOT_NAMED 1953-06-15 03:00:00 TS 11.6590 111.745 main 259 259 __P_______P___ -1 11.9425 111.480 0 18 1001 11.3754 112.010 2 10 31
1953165N10109 1953 25 WP MM NOT_NAMED 1953-06-15 06:00:00 TS 12.1149 111.978 main 277 275 __O_______P___ -1 12.5000 111.600 0 19 1000 11.7298 112.357 2 9 25
1953165N10109 1953 25 WP MM NOT_NAMED 1953-06-15 09:00:00 TS 12.5009 112.149 main 282 282 __P_______P___ -1 12.8575 111.673 0 19 1000 12.1443 112.625 2 8 19
1953165N10109 1953 25 WP MM NOT_NAMED 1953-06-15 12:00:00 TS 12.9000 112.250 main 303 303 __O_______O___ -1 13.2000 111.700 0 19 1000 12.6000 112.800 2 9 11
1953165N10109 1953 25 WP MM NOT_NAMED 1953-06-15 15:00:00 TS 13.3902 112.320 main 308 308 __P_______P___ -1 13.6925 111.708 0 19 1000 13.0879 112.933 2 10 4
1953165N10109 1953 25 WP MM NOT_NAMED 1953-06-15 18:00:00 TS 13.9034 112.334 main 323 323 __O_______P___ -1 14.2000 111.700 0 19 1000 13.6068 112.967 2 10 359
1953165N10109 1953 25 WP MM NOT_NAMED 1953-06-15 21:00:00 TS 14.3648 112.315 main 328 325 __P_______P___ -1 14.6075 111.737 0 19 1000 14.1222 112.892 2 9 352
1953165N10109 1953 25 WP MM NOT_NAMED 1953-06-16 00:00:00 TS 14.8000 112.200 main 328 314 __O_______O___ -1 15.0000 111.700 0 19 1000 14.6000 112.700 2 9 338
1953165N10109 1953 25 WP MM NOT_NAMED 1953-06-16 03:00:00 TS 15.2215 111.964 main 316 286 __P_______P___ -1 15.4500 111.510 0 19 999 14.9931 112.418 2 10 325
1953165N10109 1953 25 WP MM NOT_NAMED 1953-06-16 06:00:00 TS 15.6224 111.611 main 286 262 __O_______P___ -1 15.9000 111.200 0 19 999 15.3448 112.022 2 11 316
1953165N10109 1953 25 WP MM NOT_NAMED 1953-06-16 09:00:00 TS 16.0021 111.174 main 262 228 __P_______P___ -1 16.3301 110.808 0 19 998 15.6742 111.540 2 11 310
1953165N10109 1953 25 WP MM NOT_NAMED 1953-06-16 12:00:00 TS 16.3500 110.700 main 227 179 __O_______O___ -1 16.7000 110.400 0 19 998 16.0000 111.000 2 11 308
1953165N10109 1953 25 WP MM NOT_NAMED 1953-06-16 15:00:00 TS 16.6914 110.259 main 179 134 __P_______P___ -1 16.9872 110.115 0 28 998 16.3956 110.403 2 11 306
1953165N10109 1953 25 WP MM NOT_NAMED 1953-06-16 18:00:00 TS 16.9919 109.782 main 134 112 __O_______P___ -1 17.2000 109.800 2 38 998 16.7839 109.764 2 11 300
1953165N10109 1953 25 WP MM NOT_NAMED 1953-06-16 21:00:00 TS 17.2476 109.233 main 116 103 __P_______P___ -1 17.3651 109.322 2 33 998 17.1301 109.143 2 11 294
1953165N10109 1953 25 WP MM NOT_NAMED 1953-06-17 00:00:00 TS 17.4500 108.700 main 105 105 __O_______O___ -1 17.5000 108.800 1 29 998 17.4000 108.600 2 10 291
1953165N10109 1953 25 WP MM NOT_NAMED 1953-06-17 03:00:00 TS 17.6025 108.272 main 109 108 __P_______P___ -1 17.6347 108.365 1 29 998 17.5704 108.179 2 8 290
1953165N10109 1953 25 WP MM NOT_NAMED 1953-06-17 06:00:00 TS 17.7395 107.883 main 108 94 __O_______P___ -1 17.8000 107.900 1 29 998 17.6590 107.861 2 9 292
1953165N10109 1953 25 WP MM NOT_NAMED 1953-06-17 09:00:00 TS 17.9260 107.424 main 92 47 __P_______P___ -1 18.0424 107.330 1 29 998 17.6931 107.613 2 11 294
1953165N10109 1953 25 WP MM NOT_NAMED 1953-06-17 12:00:00 TS 18.1800 106.840 main 43 15 __O_______O___ -1 18.3000 106.700 1 29 998 17.7000 107.400 2 14 293
1953165N10109 1953 25 WP MM NOT_NAMED 1953-06-17 15:00:00 TS 18.4926 106.027 main 10 0 __P___________ -1 18.4926 106.027 1 26 998 2 15 291
1953165N10109 1953 25 WP MM NOT_NAMED 1953-06-17 18:00:00 TS 18.7000 105.400 main 0 0 __O___________ -1 18.7000 105.400 1 23 998 2 12 295
1953165N10109 1953 25 WP MM NOT_NAMED 1953-06-17 21:00:00 TS 18.9771 104.927 main 0 0 __P___________ -1 18.9771 104.927 1 21 998 2 10 305
1953165N10109 1953 25 WP MM NOT_NAMED 1953-06-18 00:00:00 TS 19.3000 104.500 main 0 0 __O___________ -1 19.3000 104.500 0 19 998 11 308
1953165N10109 1953 25 WP MM NOT_NAMED 1953-06-18 03:00:00 TS 19.6455 104.021 main 0 0 __P___________ -1 19.6455 104.021 0 19 998 12 307
1953165N10109 1953 25 WP MM NOT_NAMED 1953-06-18 06:00:00 TS 20.0000 103.500 main 0 __O___________ -1 20.0000 103.500 0 19 999 12 306

デジタル台風データ・検索

IBTrACS Databaseについて

本データベースは、米国NOAAが公開する1842年以降の世界の熱帯低気圧のベストトラックデータアーカイブInternational Best Track Archive for Climate Stewardship (IBTrACS)を、ウェブで閲覧しやすい形式に変換したものです。

最終更新日:2021-12-01